createdAt,value
2019-02-12T00:02:16.681Z,77.15
2019-02-12T00:04:43.745Z,77.23
2019-02-12T00:07:10.843Z,77.00
2019-02-12T00:09:37.848Z,77.18
2019-02-12T00:12:04.893Z,77.20
2019-02-12T00:14:31.926Z,77.25
2019-02-12T00:16:58.952Z,77.40
2019-02-12T00:19:26.003Z,77.37
2019-02-12T00:21:53.044Z,77.37
2019-02-12T00:24:20.121Z,77.35
2019-02-12T00:26:47.170Z,77.37
2019-02-12T00:29:14.228Z,77.35
2019-02-12T00:31:41.285Z,77.29
2019-02-12T00:34:08.336Z,77.26
2019-02-12T00:36:35.391Z,77.34
2019-02-12T00:39:03.834Z,77.33
2019-02-12T00:41:30.900Z,77.30
2019-02-12T00:43:57.935Z,77.39
2019-02-12T00:46:24.978Z,77.28
2019-02-12T00:48:52.145Z,77.27
2019-02-12T00:51:19.260Z,77.18
2019-02-12T00:53:46.313Z,77.07
2019-02-12T00:56:13.386Z,77.01
2019-02-12T00:58:40.418Z,77.03
2019-02-12T01:01:07.462Z,77.13
2019-02-12T01:03:34.487Z,77.17
2019-02-12T01:06:01.527Z,77.15
2019-02-12T01:08:28.578Z,77.06
2019-02-12T01:10:55.619Z,77.08
2019-02-12T01:13:22.666Z,77.06
2019-02-12T01:15:49.689Z,77.03
2019-02-12T01:18:16.727Z,77.06
2019-02-12T01:20:43.772Z,77.13
2019-02-12T01:23:10.830Z,77.10
2019-02-12T01:25:37.878Z,77.12
2019-02-12T01:28:04.912Z,77.06
2019-02-12T01:30:31.952Z,77.09
2019-02-12T01:32:59.000Z,77.12
2019-02-12T01:35:26.070Z,77.18
2019-02-12T01:37:53.102Z,77.16
2019-02-12T01:40:20.181Z,77.15
2019-02-12T01:42:47.238Z,77.12
2019-02-12T01:45:14.307Z,77.17
2019-02-12T01:47:41.340Z,77.18
2019-02-12T01:50:10.289Z,77.18
2019-02-12T01:52:37.371Z,77.14
2019-02-12T01:55:04.894Z,77.02
2019-02-12T01:57:32.147Z,76.95
2019-02-12T01:59:59.207Z,76.90
2019-02-12T02:02:26.242Z,76.33
2019-02-12T02:04:53.307Z,76.15
2019-02-12T02:07:20.341Z,76.15
2019-02-12T02:09:47.438Z,75.95
2019-02-12T02:12:14.503Z,75.79
2019-02-12T02:14:41.536Z,75.73
2019-02-12T02:17:08.581Z,75.67
2019-02-12T02:19:35.641Z,75.45
2019-02-12T02:22:02.691Z,75.50
2019-02-12T02:24:29.759Z,75.20
2019-02-12T02:26:56.798Z,75.32
2019-02-12T02:29:23.833Z,75.33
2019-02-12T02:31:50.875Z,74.97
2019-02-12T02:34:17.906Z,74.96
2019-02-12T02:36:44.957Z,74.93
2019-02-12T02:39:12.000Z,74.57
2019-02-12T02:41:39.041Z,74.15
2019-02-12T02:44:06.091Z,74.29
2019-02-12T02:46:33.146Z,74.18
2019-02-12T02:49:00.178Z,74.17
2019-02-12T02:51:27.224Z,73.99
2019-02-12T02:53:54.268Z,73.71
2019-02-12T02:56:21.356Z,73.76
2019-02-12T02:58:48.381Z,73.87
2019-02-12T03:01:15.442Z,73.85
2019-02-12T03:03:42.464Z,73.93
2019-02-12T03:06:09.494Z,73.71
2019-02-12T03:08:36.548Z,73.23
2019-02-12T03:11:03.601Z,73.32
2019-02-12T03:13:30.642Z,73.17
2019-02-12T03:15:57.710Z,73.00
2019-02-12T03:18:24.760Z,73.13
2019-02-12T03:20:51.820Z,73.16
2019-02-12T03:23:18.868Z,73.18
2019-02-12T03:25:45.923Z,73.23
2019-02-12T03:28:12.957Z,72.89
2019-02-12T03:30:40.115Z,73.06
2019-02-12T03:33:07.165Z,73.27
2019-02-12T03:35:34.226Z,73.47
2019-02-12T03:38:01.306Z,73.58
2019-02-12T03:40:28.327Z,73.83
2019-02-12T03:42:55.366Z,73.92
2019-02-12T03:45:22.445Z,73.96
2019-02-12T03:47:49.507Z,73.97
2019-02-12T03:50:16.599Z,74.07
2019-02-12T03:52:43.610Z,74.04
2019-02-12T03:55:14.317Z,74.17
2019-02-12T03:57:41.466Z,74.16
2019-02-12T04:00:10.793Z,74.32
2019-02-12T04:02:57.705Z,74.66
2019-02-12T04:05:24.739Z,74.80
2019-02-12T04:07:51.783Z,74.79
2019-02-12T04:10:18.813Z,74.96
2019-02-12T04:12:45.866Z,75.33
2019-02-12T04:15:12.920Z,75.93
2019-02-12T04:17:39.989Z,76.53
2019-02-12T04:20:07.032Z,77.19
2019-02-12T04:22:34.092Z,77.50
2019-02-12T04:25:01.089Z,77.54
2019-02-12T04:27:28.156Z,77.64
2019-02-12T04:29:55.218Z,76.88
2019-02-12T04:32:22.269Z,76.47
2019-02-12T04:34:49.340Z,76.43
2019-02-12T04:37:16.364Z,76.20
2019-02-12T04:39:43.407Z,76.21
2019-02-12T04:42:10.459Z,76.62
2019-02-12T04:44:37.489Z,76.62
2019-02-12T04:47:04.559Z,76.71
2019-02-12T04:49:31.586Z,76.70
2019-02-12T04:51:58.657Z,76.58
2019-02-12T04:54:25.712Z,76.56
2019-02-12T04:56:52.773Z,76.60
2019-02-12T04:59:19.831Z,76.53
2019-02-12T05:01:46.864Z,76.46
2019-02-12T05:04:13.909Z,76.29
2019-02-12T05:06:40.954Z,76.25
2019-02-12T05:09:18.637Z,76.26
2019-02-12T05:11:48.957Z,76.17
2019-02-12T05:14:16.000Z,76.12
2019-02-12T05:16:43.096Z,76.08
2019-02-12T05:19:10.132Z,75.93
2019-02-12T05:21:37.200Z,75.81
2019-02-12T05:24:04.257Z,75.62
2019-02-12T05:26:31.290Z,75.08
2019-02-12T05:28:58.340Z,75.08
2019-02-12T05:31:25.383Z,74.98
2019-02-12T05:33:52.438Z,74.61
2019-02-12T05:36:19.462Z,74.49
2019-02-12T05:38:46.502Z,74.53
2019-02-12T05:41:13.571Z,74.49
2019-02-12T05:43:40.631Z,74.60
2019-02-12T05:46:07.679Z,74.58
2019-02-12T05:48:34.729Z,74.34
2019-02-12T05:51:01.789Z,74.35
2019-02-12T05:53:28.866Z,74.45
2019-02-12T05:55:55.911Z,74.58
2019-02-12T05:58:22.971Z,74.46
2019-02-12T06:00:50.026Z,73.52
2019-02-12T06:03:17.077Z,72.68
2019-02-12T06:05:44.132Z,72.49
2019-02-12T06:08:11.175Z,72.35
2019-02-12T06:10:38.313Z,72.91
2019-02-12T06:13:05.382Z,72.79
2019-02-12T06:15:32.440Z,73.01
2019-02-12T06:17:59.480Z,73.10
2019-02-12T06:20:29.284Z,71.86
2019-02-12T06:23:03.510Z,70.69
2019-02-12T06:25:25.267Z,71.10
2019-02-12T06:27:52.319Z,70.34
2019-02-12T06:30:19.382Z,69.83
2019-02-12T06:32:46.427Z,69.95
2019-02-12T06:35:13.472Z,69.95
2019-02-12T06:37:40.550Z,68.98
2019-02-12T06:40:08.381Z,68.86
2019-02-12T06:42:35.537Z,68.78
2019-02-12T06:45:02.692Z,68.07
2019-02-12T06:47:29.755Z,68.83
2019-02-12T06:49:56.799Z,69.23
2019-02-12T06:52:23.876Z,68.20
2019-02-12T06:54:50.937Z,68.48
2019-02-12T06:57:18.009Z,68.83
2019-02-12T06:59:45.055Z,69.40
2019-02-12T07:02:48.394Z,69.84
2019-02-12T07:05:15.429Z,70.17
2019-02-12T07:08:32.911Z,70.64
2019-02-12T07:11:04.973Z,70.68
2019-02-12T07:13:39.937Z,71.05
2019-02-12T07:16:30.147Z,71.30
2019-02-12T07:19:17.608Z,71.31
2019-02-12T07:22:06.052Z,71.40
2019-02-12T07:25:38.712Z,71.50
2019-02-12T07:28:32.141Z,71.63
2019-02-12T07:31:34.671Z,71.78
2019-02-12T07:34:34.673Z,71.85
2019-02-12T07:37:41.315Z,71.91
2019-02-12T07:40:46.405Z,72.02
2019-02-12T07:43:54.526Z,71.85
2019-02-12T07:47:08.181Z,71.66
2019-02-12T07:50:13.180Z,71.41
2019-02-12T07:53:40.041Z,71.15
2019-02-12T07:56:22.853Z,70.55
2019-02-12T07:59:24.695Z,69.33
2019-02-12T08:02:26.290Z,69.47
2019-02-12T08:05:11.857Z,68.35
2019-02-12T08:08:10.358Z,67.67
2019-02-12T08:11:25.112Z,67.75
2019-02-12T08:14:23.262Z,66.94
2019-02-12T08:17:11.213Z,67.21
2019-02-12T08:20:18.455Z,66.68
2019-02-12T08:23:13.131Z,66.73
2019-02-12T08:26:20.787Z,66.92
2019-02-12T08:29:34.056Z,67.06
2019-02-12T08:32:34.573Z,67.04
2019-02-12T08:36:04.269Z,67.10
2019-02-12T08:39:15.314Z,67.12
2019-02-12T08:42:18.663Z,66.71
2019-02-12T08:45:19.287Z,66.04
2019-02-12T08:48:32.861Z,65.33
2019-02-12T08:51:24.520Z,64.76
2019-02-12T08:54:31.767Z,63.99
2019-02-12T08:57:43.753Z,64.21
2019-02-12T09:00:23.943Z,64.38
2019-02-12T09:03:51.120Z,64.63
2019-02-12T09:06:43.388Z,64.82
2019-02-12T09:10:19.393Z,64.53
2019-02-12T09:13:15.930Z,65.04
2019-02-12T09:16:09.264Z,64.84
2019-02-12T09:19:18.502Z,64.75
2019-02-12T09:22:13.668Z,64.98
2019-02-12T09:24:57.385Z,64.29
2019-02-12T09:27:51.014Z,63.82
2019-02-12T09:31:12.147Z,64.37
2019-02-12T09:34:22.336Z,63.42
2019-02-12T09:37:22.981Z,62.69
2019-02-12T09:40:19.297Z,62.08
2019-02-12T09:43:10.067Z,61.59
2019-02-12T09:46:28.788Z,61.10
2019-02-12T09:49:29.683Z,60.68
2019-02-12T09:52:41.336Z,60.52
2019-02-12T09:55:30.486Z,60.33
2019-02-12T09:58:37.850Z,60.24
2019-02-12T10:01:37.124Z,59.48
2019-02-12T10:04:52.258Z,59.27
2019-02-12T10:08:16.123Z,59.22
2019-02-12T10:11:43.100Z,59.71
2019-02-12T10:14:51.966Z,60.08
2019-02-12T10:17:54.775Z,58.99
2019-02-12T10:20:38.360Z,59.53
2019-02-12T10:23:51.938Z,60.06
2019-02-12T10:26:19.453Z,60.86
2019-02-12T10:29:14.381Z,61.33
2019-02-12T10:31:41.443Z,62.05
2019-02-12T10:34:08.714Z,62.27
2019-02-12T10:36:35.780Z,62.36
2019-02-12T10:39:04.005Z,62.48
2019-02-12T10:41:31.083Z,63.11
2019-02-12T10:43:58.117Z,63.38
2019-02-12T10:46:25.223Z,63.45
2019-02-12T10:48:52.788Z,63.09
2019-02-12T10:51:19.917Z,63.76
2019-02-12T10:53:47.009Z,63.35
2019-02-12T10:56:14.042Z,63.37
2019-02-12T10:58:41.138Z,62.89
2019-02-12T11:01:08.162Z,63.16
2019-02-12T11:03:35.216Z,63.04
2019-02-12T11:06:02.269Z,62.58
2019-02-12T11:08:29.331Z,62.27
2019-02-12T11:10:56.402Z,62.42
2019-02-12T11:13:23.460Z,62.02
2019-02-12T11:15:50.533Z,61.58
2019-02-12T11:18:17.567Z,61.66
2019-02-12T11:20:44.630Z,61.19
2019-02-12T11:23:11.673Z,61.10
2019-02-12T11:25:38.720Z,60.44
2019-02-12T11:28:05.746Z,60.51
2019-02-12T11:30:32.780Z,60.20
2019-02-12T11:32:59.814Z,60.50
2019-02-12T11:35:26.879Z,60.02
2019-02-12T11:37:53.905Z,60.34
2019-02-12T11:40:20.942Z,60.52
2019-02-12T11:42:48.024Z,60.65
2019-02-12T11:45:15.090Z,59.89
2019-02-12T11:47:42.257Z,59.95
2019-02-12T11:50:09.304Z,59.66
2019-02-12T11:52:36.392Z,58.68
2019-02-12T11:55:03.673Z,58.73
2019-02-12T11:57:30.734Z,57.99
2019-02-12T11:59:57.770Z,58.80
2019-02-12T12:02:29.310Z,58.77
2019-02-12T12:04:56.376Z,58.41
2019-02-12T12:07:23.443Z,58.38
2019-02-12T12:09:50.469Z,57.66
2019-02-12T12:12:17.512Z,58.08
2019-02-12T12:14:44.897Z,58.13
2019-02-12T12:17:11.937Z,56.77
2019-02-12T12:19:39.022Z,57.27
2019-02-12T12:22:06.428Z,56.30
2019-02-12T12:24:33.520Z,55.09
2019-02-12T12:27:00.573Z,55.17
2019-02-12T12:29:27.628Z,55.79
2019-02-12T12:31:54.663Z,54.66
2019-02-12T12:34:21.729Z,54.92
2019-02-12T12:36:48.765Z,55.38
2019-02-12T12:39:15.816Z,55.55
2019-02-12T12:41:42.887Z,55.63
2019-02-12T12:44:09.944Z,56.41
2019-02-12T12:46:37.031Z,55.24
2019-02-12T12:49:04.182Z,55.60
2019-02-12T12:51:31.260Z,55.35
2019-02-12T12:53:58.333Z,55.06
2019-02-12T12:56:25.434Z,55.28
2019-02-12T12:58:52.480Z,55.94
2019-02-12T13:01:19.589Z,54.23
2019-02-12T13:03:46.639Z,54.92
2019-02-12T13:06:13.678Z,56.17
2019-02-12T13:08:40.725Z,56.09
2019-02-12T13:11:07.807Z,54.11
2019-02-12T13:13:34.884Z,54.50
2019-02-12T13:16:03.044Z,53.86
2019-02-12T13:18:30.125Z,54.51
2019-02-12T13:20:57.224Z,54.72
2019-02-12T13:23:24.315Z,54.82
2019-02-12T13:25:51.397Z,55.04
2019-02-12T13:28:18.443Z,54.56
2019-02-12T13:30:45.527Z,53.66
2019-02-12T13:33:12.579Z,53.69
2019-02-12T13:35:39.665Z,53.96
2019-02-12T13:38:06.711Z,54.12
2019-02-12T13:40:33.791Z,54.07
2019-02-12T13:43:00.823Z,54.58
2019-02-12T13:45:27.898Z,54.25
2019-02-12T13:47:54.940Z,54.56
2019-02-12T13:50:22.015Z,52.88
2019-02-12T13:52:49.076Z,53.35
2019-02-12T13:55:17.611Z,53.07
2019-02-12T13:57:44.935Z,53.39
2019-02-12T14:00:12.688Z,53.85
2019-02-12T14:02:39.709Z,53.74
2019-02-12T14:05:10.087Z,54.46
2019-02-12T14:07:37.212Z,54.64
2019-02-12T14:10:04.457Z,54.23
2019-02-12T14:12:31.542Z,53.92
2019-02-12T14:14:58.586Z,54.59
2019-02-12T14:17:25.694Z,54.39
2019-02-12T14:19:52.752Z,54.75
2019-02-12T14:22:19.832Z,54.37
2019-02-12T14:24:46.866Z,54.13
2019-02-12T14:27:13.933Z,54.57
2019-02-12T14:29:41.004Z,55.06
2019-02-12T14:32:08.084Z,54.87
2019-02-12T14:34:35.132Z,54.53
2019-02-12T14:37:02.206Z,55.09
2019-02-12T14:39:29.249Z,55.22
2019-02-12T14:41:56.274Z,55.19
2019-02-12T14:44:23.319Z,55.25
2019-02-12T14:46:50.371Z,55.02
2019-02-12T14:49:17.440Z,55.43
2019-02-12T14:51:44.503Z,55.23
2019-02-12T14:54:11.656Z,55.24
2019-02-12T14:56:38.685Z,55.27
2019-02-12T14:59:06.599Z,54.73
2019-02-12T15:01:33.646Z,55.18
2019-02-12T15:04:03.675Z,55.61
2019-02-12T15:06:30.739Z,55.51
2019-02-12T15:08:57.813Z,55.74
2019-02-12T15:11:24.892Z,55.65
2019-02-12T15:13:51.959Z,55.68
2019-02-12T15:16:19.016Z,55.50
2019-02-12T15:18:47.658Z,55.82
2019-02-12T15:21:14.734Z,55.89
2019-02-12T15:23:41.794Z,55.91
2019-02-12T15:26:08.821Z,56.20
2019-02-12T15:28:35.875Z,56.38
2019-02-12T15:31:02.919Z,56.32
2019-02-12T15:33:30.008Z,56.24
2019-02-12T15:35:57.063Z,56.83
2019-02-12T15:38:24.129Z,56.81
2019-02-12T15:40:51.208Z,56.60
2019-02-12T15:43:18.266Z,57.09
2019-02-12T15:45:45.351Z,57.08
2019-02-12T15:48:12.393Z,57.12
2019-02-12T15:50:39.477Z,57.36
2019-02-12T15:53:06.523Z,57.51
2019-02-12T15:55:33.694Z,57.69
2019-02-12T15:58:00.799Z,57.81
2019-02-12T16:00:27.860Z,58.05
2019-02-12T16:02:56.040Z,58.09
2019-02-12T16:05:23.916Z,58.49
2019-02-12T16:07:50.982Z,58.49
2019-02-12T16:10:19.719Z,58.45
2019-02-12T16:12:48.743Z,58.55
2019-02-12T16:15:16.071Z,58.71
2019-02-12T16:17:43.172Z,58.77
2019-02-12T16:20:10.637Z,58.94
2019-02-12T16:22:37.786Z,59.17
2019-02-12T16:25:05.458Z,59.29
2019-02-12T16:27:32.523Z,59.58
2019-02-12T16:30:01.058Z,59.52
2019-02-12T16:32:28.343Z,59.91
2019-02-12T16:34:55.471Z,59.93
2019-02-12T16:37:22.573Z,59.73
2019-02-12T16:39:49.689Z,60.21
2019-02-12T16:42:17.334Z,60.34
2019-02-12T16:44:44.447Z,59.97
2019-02-12T16:47:12.568Z,60.24
2019-02-12T16:49:39.703Z,60.34
2019-02-12T16:52:06.917Z,60.52
2019-02-12T16:54:34.040Z,60.74
2019-02-12T16:57:01.168Z,61.20
2019-02-12T16:59:28.315Z,61.12
2019-02-12T17:01:55.519Z,61.45
2019-02-12T17:04:22.898Z,61.55
2019-02-12T17:06:52.149Z,61.96
2019-02-12T17:09:19.274Z,62.19
2019-02-12T17:11:46.374Z,62.46
2019-02-12T17:14:13.471Z,62.74
2019-02-12T17:16:42.694Z,62.82
2019-02-12T17:19:09.817Z,62.95
2019-02-12T17:21:36.944Z,63.19
2019-02-12T17:24:04.082Z,63.31
2019-02-12T17:26:31.214Z,63.43
2019-02-12T17:28:58.348Z,63.60
2019-02-12T17:31:25.457Z,63.63
2019-02-12T17:33:52.589Z,63.81
2019-02-12T17:36:19.699Z,64.02
2019-02-12T17:38:46.826Z,64.24
2019-02-12T17:41:13.932Z,64.52
2019-02-12T17:43:41.047Z,65.09
2019-02-12T17:46:08.150Z,65.40
2019-02-12T17:48:35.337Z,65.83
2019-02-12T17:51:03.475Z,66.09
2019-02-12T17:53:32.651Z,66.27
2019-02-12T17:55:59.747Z,66.48
2019-02-12T17:58:27.756Z,66.59
2019-02-12T18:00:55.011Z,66.89
2019-02-12T18:03:22.192Z,67.01
2019-02-12T18:05:49.350Z,66.97
2019-02-12T18:08:16.841Z,67.20
2019-02-12T18:10:44.006Z,67.35
2019-02-12T18:13:11.190Z,67.48
2019-02-12T18:15:38.563Z,70.23
2019-02-12T18:18:06.973Z,70.25
2019-02-12T18:20:34.199Z,70.69
2019-02-12T18:23:01.357Z,70.66
2019-02-12T18:25:29.092Z,69.54
2019-02-12T18:27:57.683Z,67.58
2019-02-12T18:30:24.893Z,64.94
2019-02-12T18:32:52.166Z,63.47
2019-02-12T18:35:25.297Z,63.32
2019-02-12T18:37:52.622Z,63.51
2019-02-12T18:40:19.863Z,63.98
2019-02-12T18:42:49.380Z,64.59
2019-02-12T18:45:16.971Z,65.04
2019-02-12T18:47:44.903Z,65.48
2019-02-12T18:50:16.947Z,66.00
2019-02-12T18:52:44.695Z,66.25
2019-02-12T18:55:12.445Z,66.60
2019-02-12T18:57:39.995Z,66.96
2019-02-12T19:00:12.320Z,67.33
2019-02-12T19:02:40.839Z,67.61
2019-02-12T19:05:09.380Z,67.79
2019-02-12T19:07:36.641Z,67.90
2019-02-12T19:10:06.912Z,68.68
2019-02-12T19:12:34.546Z,69.16
2019-02-12T19:15:02.294Z,69.27
2019-02-12T19:17:30.433Z,68.95
2019-02-12T19:19:57.970Z,69.48
2019-02-12T19:22:26.278Z,68.35
2019-02-12T19:24:53.851Z,68.27
2019-02-12T19:27:22.722Z,68.18
2019-02-12T19:29:50.630Z,68.07
2019-02-12T19:32:18.794Z,68.17
2019-02-12T19:34:48.195Z,68.17
2019-02-12T19:37:16.032Z,68.33
2019-02-12T19:39:43.602Z,68.30
2019-02-12T19:42:12.659Z,68.40
2019-02-12T19:44:40.276Z,68.51
2019-02-12T19:47:09.944Z,68.62
2019-02-12T19:49:41.078Z,68.89
2019-02-12T19:52:17.982Z,68.88
2019-02-12T19:54:48.587Z,68.96
2019-02-12T19:57:16.433Z,69.02
2019-02-12T19:59:45.404Z,69.01
2019-02-12T20:02:13.494Z,69.04
2019-02-12T20:04:41.853Z,69.07
2019-02-12T20:07:09.383Z,69.12
2019-02-12T20:09:36.898Z,69.16
2019-02-12T20:12:04.604Z,69.37
2019-02-12T20:14:32.948Z,69.51
2019-02-12T20:17:03.479Z,69.51
2019-02-12T20:19:31.648Z,69.57
2019-02-12T20:21:59.514Z,69.64
2019-02-12T20:24:27.594Z,69.60
2019-02-12T20:26:56.425Z,69.60
2019-02-12T20:29:24.347Z,69.56
2019-02-12T20:31:52.744Z,69.66
2019-02-12T20:34:22.057Z,69.66
2019-02-12T20:36:52.066Z,69.68
2019-02-12T20:39:20.175Z,69.62
2019-02-12T20:41:48.235Z,69.67
2019-02-12T20:44:16.180Z,69.56
2019-02-12T20:46:44.405Z,69.47
2019-02-12T20:49:12.680Z,69.40
2019-02-12T20:51:40.474Z,69.38
2019-02-12T20:54:08.245Z,69.46
2019-02-12T20:56:35.870Z,69.46
2019-02-12T20:59:03.319Z,69.35
2019-02-12T21:01:31.046Z,69.34
2019-02-12T21:03:58.546Z,69.28
2019-02-12T21:06:27.231Z,69.12
2019-02-12T21:08:55.172Z,69.15
2019-02-12T21:11:22.500Z,69.13
2019-02-12T21:13:49.974Z,69.20
2019-02-12T21:16:17.177Z,69.23
2019-02-12T21:18:47.208Z,69.21
2019-02-12T21:21:14.595Z,69.26
2019-02-12T21:23:41.877Z,69.19
2019-02-12T21:26:09.114Z,69.16
2019-02-12T21:28:36.291Z,69.13
2019-02-12T21:31:03.457Z,69.09
2019-02-12T21:33:32.099Z,69.05
2019-02-12T21:35:59.261Z,69.03
2019-02-12T21:38:26.717Z,69.09
2019-02-12T21:40:53.957Z,69.15
2019-02-12T21:43:21.107Z,68.96
2019-02-12T21:45:48.282Z,68.78
2019-02-12T21:48:15.892Z,68.76
2019-02-12T21:50:43.055Z,68.85
2019-02-12T21:53:10.170Z,68.85
2019-02-12T21:55:37.621Z,68.87
2019-02-12T21:58:04.743Z,68.83
2019-02-12T22:00:31.880Z,68.82
2019-02-12T22:02:58.974Z,68.85
2019-02-12T22:05:26.341Z,68.99
2019-02-12T22:07:53.450Z,68.95
2019-02-12T22:10:20.649Z,69.01
2019-02-12T22:12:47.784Z,68.83
2019-02-12T22:15:14.918Z,68.64
2019-02-12T22:17:42.026Z,68.52
2019-02-12T22:20:10.818Z,68.43
2019-02-12T22:22:37.905Z,68.44
2019-02-12T22:25:05.133Z,68.42
2019-02-12T22:27:39.848Z,68.39
2019-02-12T22:30:01.178Z,68.23
2019-02-12T22:32:28.268Z,68.28
2019-02-12T22:34:55.327Z,68.15
2019-02-12T22:37:22.398Z,68.05
2019-02-12T22:39:49.448Z,67.96
2019-02-12T22:42:16.495Z,67.90
2019-02-12T22:44:43.537Z,67.73
2019-02-12T22:47:10.596Z,68.13
2019-02-12T22:49:37.650Z,68.50
2019-02-12T22:52:04.735Z,67.71
2019-02-12T22:54:31.785Z,67.34
2019-02-12T22:56:58.826Z,67.44
2019-02-12T22:59:25.872Z,67.51
2019-02-12T23:01:52.910Z,67.29
2019-02-12T23:04:19.944Z,67.23
2019-02-12T23:06:46.971Z,67.15
2019-02-12T23:09:17.482Z,67.06
2019-02-12T23:11:44.532Z,67.01
2019-02-12T23:14:11.565Z,67.06
2019-02-12T23:16:38.608Z,67.13
2019-02-12T23:19:05.646Z,67.27
2019-02-12T23:21:32.680Z,67.23
2019-02-12T23:23:59.731Z,67.32
2019-02-12T23:26:26.801Z,67.44
2019-02-12T23:28:53.861Z,67.75
2019-02-12T23:31:20.958Z,67.86
2019-02-12T23:33:48.094Z,67.84
2019-02-12T23:36:15.129Z,67.90
2019-02-12T23:38:42.169Z,67.84
2019-02-12T23:41:09.218Z,67.79
2019-02-12T23:43:36.273Z,67.98
2019-02-12T23:46:03.322Z,68.06
2019-02-12T23:48:30.436Z,68.05
2019-02-12T23:50:57.500Z,68.14
2019-02-12T23:53:24.556Z,68.16
2019-02-12T23:55:51.615Z,68.32
2019-02-12T23:58:18.661Z,68.42
